Time;durP1;ratioP1;P1;durP2;ratioP2;P2;SDS_P1;SDS_P2;PMS_P1;PMS_P2;Temp;Humidity;BMP_temperature;BMP_pressure;BME280_temperature;BME280_humidity;BME280_pressure;Samples;Min_cycle;Max_cycle;Signal;HPM_P1;HPM_P2
2023/09/21 00:01:53;;;;;;;0.70;0.70;;;;;;;;;;5114820;28;20492;-63
2023/09/21 00:04:21;;;;;;;0.70;0.70;;;;;;;;;;5115135;28;20441;-63
2023/09/21 00:06:50;;;;;;;0.70;0.70;;;;;;;;;;5114075;28;20469;-63
2023/09/21 00:09:18;;;;;;;0.70;0.70;;;;;;;;;;5115305;28;20534;-63
2023/09/21 00:11:46;;;;;;;0.70;0.70;;;;;;;;;;5114066;28;20449;-63
2023/09/21 00:14:13;;;;;;;0.70;0.70;;;;;;;;;;5114470;28;20462;-63
2023/09/21 00:16:40;;;;;;;0.70;0.70;;;;;;;;;;5114331;28;20444;-63
2023/09/21 00:19:10;;;;;;;0.70;0.70;;;;;;;;;;5113526;28;20536;-63
2023/09/21 00:21:38;;;;;;;0.70;0.70;;;;;;;;;;5113861;28;20944;-64
2023/09/21 00:24:23;;;;;;;0.70;0.70;;;;;;;;;;5114161;28;20474;-63
2023/09/21 00:26:51;;;;;;;0.70;0.70;;;;;;;;;;5114152;28;20494;-63
2023/09/21 00:29:18;;;;;;;0.70;0.70;;;;;;;;;;5113906;28;20954;-63
2023/09/21 00:31:45;;;;;;;0.70;0.70;;;;;;;;;;5114082;28;20529;-64
2023/09/21 00:34:13;;;;;;;0.77;0.77;;;;;;;;;;5114076;28;20441;-64
2023/09/21 00:36:45;;;;;;;0.70;0.70;;;;;;;;;;5114040;28;20803;-64
2023/09/21 00:39:12;;;;;;;0.70;0.70;;;;;;;;;;5114412;28;20496;-63
2023/09/21 00:41:39;;;;;;;0.70;0.70;;;;;;;;;;5113928;28;20446;-63
2023/09/21 00:44:10;;;;;;;0.70;0.70;;;;;;;;;;5113636;28;20960;-63
2023/09/21 00:46:38;;;;;;;0.70;0.70;;;;;;;;;;5113373;28;20484;-63
2023/09/21 00:49:05;;;;;;;0.70;0.70;;;;;;;;;;5114114;28;20788;-63
2023/09/21 00:51:34;;;;;;;0.70;0.70;;;;;;;;;;5113439;28;20969;-63
2023/09/21 00:54:07;;;;;;;1.47;1.37;;;;;;;;;;5113961;28;20437;-64
2023/09/21 00:56:34;;;;;;;0.70;0.70;;;;;;;;;;5113702;28;20425;-64
2023/09/21 00:59:02;;;;;;;0.70;0.70;;;;;;;;;;5114083;28;20465;-64
2023/09/21 01:01:31;;;;;;;0.70;0.70;;;;;;;;;;5113862;28;20429;-64
2023/09/21 01:04:00;;;;;;;0.80;0.80;;;;;;;;;;5113951;28;20491;-64
2023/09/21 01:06:28;;;;;;;0.70;0.70;;;;;;;;;;5113162;28;20478;-64
2023/09/21 01:08:56;;;;;;;0.70;0.70;;;;;;;;;;5113898;28;20564;-64
2023/09/21 01:11:25;;;;;;;0.80;0.80;;;;;;;;;;5113630;28;20442;-64
2023/09/21 01:13:52;;;;;;;0.80;0.80;;;;;;;;;;5113576;28;20489;-64
2023/09/21 01:16:23;;;;;;;0.80;0.80;;;;;;;;;;5113481;28;20449;-64
2023/09/21 01:18:52;;;;;;;0.70;0.70;;;;;;;;;;5113880;28;20844;-63
2023/09/21 01:21:24;;;;;;;0.70;0.70;;;;;;;;;;5113327;28;20449;-63
2023/09/21 01:23:53;;;;;;;0.70;0.70;;;;;;;;;;5113344;28;20806;-63
2023/09/21 01:26:20;;;;;;;0.70;0.70;;;;;;;;;;5113373;28;20496;-64
2023/09/21 01:28:48;;;;;;;0.70;0.70;;;;;;;;;;5113417;28;20441;-63
2023/09/21 01:31:15;;;;;;;0.70;0.70;;;;;;;;;;5114501;28;20797;-63
2023/09/21 01:33:43;;;;;;;0.70;0.70;;;;;;;;;;5117190;28;20447;-64
2023/09/21 01:36:12;;;;;;;0.70;0.70;;;;;;;;;;5117465;28;20433;-63
2023/09/21 01:38:43;;;;;;;0.70;0.70;;;;;;;;;;5117443;28;20473;-63
2023/09/21 01:41:12;;;;;;;0.70;0.70;;;;;;;;;;5118029;28;20430;-63
2023/09/21 01:43:39;;;;;;;0.70;0.70;;;;;;;;;;5117283;28;20449;-63
2023/09/21 01:46:07;;;;;;;0.80;0.80;;;;;;;;;;5118042;28;20473;-63
2023/09/21 01:48:34;;;;;;;0.70;0.70;;;;;;;;;;5117277;28;20430;-63
2023/09/21 01:51:02;;;;;;;0.70;0.70;;;;;;;;;;5117001;28;20528;-64
2023/09/21 01:53:29;;;;;;;0.80;0.80;;;;;;;;;;5117127;28;20873;-63
2023/09/21 01:55:58;;;;;;;0.70;0.70;;;;;;;;;;5117182;28;20777;-63
2023/09/21 01:58:26;;;;;;;0.70;0.70;;;;;;;;;;5117017;28;20864;-63
2023/09/21 02:00:53;;;;;;;0.70;0.70;;;;;;;;;;5117272;28;20516;-64
2023/09/21 02:03:22;;;;;;;0.70;0.70;;;;;;;;;;5116725;28;20437;-64
2023/09/21 02:05:49;;;;;;;0.70;0.70;;;;;;;;;;5116530;28;20436;-64
2023/09/21 02:08:18;;;;;;;0.70;0.70;;;;;;;;;;5116459;28;21029;-64
2023/09/21 02:10:49;;;;;;;0.70;0.70;;;;;;;;;;5116428;28;20474;-64
2023/09/21 02:13:17;;;;;;;0.70;0.70;;;;;;;;;;5116995;28;20426;-64
2023/09/21 02:15:47;;;;;;;0.70;0.70;;;;;;;;;;5116982;28;20456;-63
2023/09/21 02:18:14;;;;;;;0.70;0.70;;;;;;;;;;5117024;28;20462;-64
2023/09/21 02:20:44;;;;;;;0.80;0.80;;;;;;;;;;5116445;28;20488;-64
2023/09/21 02:23:12;;;;;;;0.70;0.70;;;;;;;;;;5116836;28;20445;-64
2023/09/21 02:25:40;;;;;;;0.70;0.70;;;;;;;;;;5115425;28;20473;-64
2023/09/21 02:28:09;;;;;;;0.70;0.70;;;;;;;;;;5115288;28;20958;-63
2023/09/21 02:30:37;;;;;;;0.80;0.80;;;;;;;;;;5115234;28;20438;-64
2023/09/21 02:33:08;;;;;;;0.80;0.80;;;;;;;;;;5114997;28;20443;-64
2023/09/21 02:35:40;;;;;;;0.80;0.80;;;;;;;;;;5115319;28;20419;-63
2023/09/21 02:38:08;;;;;;;0.90;0.90;;;;;;;;;;5115090;28;20425;-64
2023/09/21 02:40:35;;;;;;;0.70;0.70;;;;;;;;;;5115486;28;20447;-63
2023/09/21 02:43:03;;;;;;;0.70;0.70;;;;;;;;;;5114650;28;20442;-64
2023/09/21 02:45:31;;;;;;;0.70;0.70;;;;;;;;;;5114825;28;20443;-64
2023/09/21 02:48:00;;;;;;;0.70;0.70;;;;;;;;;;5114471;28;20480;-64
2023/09/21 02:50:29;;;;;;;0.70;0.70;;;;;;;;;;5115257;28;20438;-64
2023/09/21 02:52:56;;;;;;;0.80;0.80;;;;;;;;;;5114488;28;20950;-63
2023/09/21 02:55:26;;;;;;;0.80;0.80;;;;;;;;;;5114893;28;20497;-64
2023/09/21 02:57:56;;;;;;;0.70;0.70;;;;;;;;;;5114839;28;20949;-64
2023/09/21 03:00:27;;;;;;;0.77;0.77;;;;;;;;;;5114743;28;20448;-64
2023/09/21 03:02:55;;;;;;;0.73;0.73;;;;;;;;;;5115080;28;20483;-64
2023/09/21 03:05:24;;;;;;;0.70;0.70;;;;;;;;;;5114427;28;20437;-64
2023/09/21 03:07:53;;;;;;;0.70;0.70;;;;;;;;;;5114984;28;20483;-64
2023/09/21 03:10:20;;;;;;;0.70;0.70;;;;;;;;;;5114901;28;20520;-65
2023/09/21 03:12:51;;;;;;;0.70;0.70;;;;;;;;;;5114678;28;20864;-65
2023/09/21 03:15:19;;;;;;;0.70;0.70;;;;;;;;;;5115073;28;20512;-65
2023/09/21 03:17:47;;;;;;;0.80;0.80;;;;;;;;;;5115072;28;20442;-65
2023/09/21 03:20:20;;;;;;;0.70;0.70;;;;;;;;;;5114314;28;20432;-65
2023/09/21 03:22:47;;;;;;;0.80;0.80;;;;;;;;;;5114710;28;20457;-65
2023/09/21 03:25:25;;;;;;;0.80;0.80;;;;;;;;;;5076912;28;1084710;-65
2023/09/21 03:27:53;;;;;;;0.80;0.80;;;;;;;;;;5115699;28;20208;-65
2023/09/21 03:30:21;;;;;;;0.70;0.70;;;;;;;;;;5115357;28;20946;-65
2023/09/21 03:32:48;;;;;;;0.70;0.70;;;;;;;;;;5115397;28;20495;-64
2023/09/21 03:35:16;;;;;;;0.80;0.80;;;;;;;;;;5115396;28;21009;-64
2023/09/21 03:37:45;;;;;;;0.70;0.70;;;;;;;;;;5115317;28;20440;-64
2023/09/21 03:40:13;;;;;;;0.80;0.80;;;;;;;;;;5115203;28;20447;-64
2023/09/21 03:42:42;;;;;;;0.80;0.80;;;;;;;;;;5115047;28;20436;-63
2023/09/21 03:45:11;;;;;;;0.73;0.73;;;;;;;;;;5115175;28;20490;-64
2023/09/21 03:47:40;;;;;;;0.70;0.70;;;;;;;;;;5114998;28;20481;-64
2023/09/21 03:50:11;;;;;;;0.70;0.70;;;;;;;;;;5111320;28;20448;-64
2023/09/21 03:52:39;;;;;;;0.70;0.70;;;;;;;;;;5113573;28;20429;-65
2023/09/21 03:55:08;;;;;;;0.80;0.80;;;;;;;;;;5113189;28;20437;-64
2023/09/21 03:57:35;;;;;;;0.70;0.70;;;;;;;;;;5114219;28;20445;-63
2023/09/21 04:00:18;;;;;;;0.70;0.70;;;;;;;;;;5113811;28;20438;-64
2023/09/21 04:02:46;;;;;;;0.70;0.70;;;;;;;;;;5114274;28;20782;-63
2023/09/21 04:05:18;;;;;;;0.70;0.70;;;;;;;;;;5114252;28;20436;-64
2023/09/21 04:07:45;;;;;;;0.70;0.70;;;;;;;;;;5114184;28;20561;-64
2023/09/21 04:10:12;;;;;;;0.70;0.70;;;;;;;;;;5113626;28;20532;-64
2023/09/21 04:12:40;;;;;;;0.70;0.70;;;;;;;;;;5114098;28;20532;-64
2023/09/21 04:15:09;;;;;;;0.70;0.70;;;;;;;;;;5113858;28;20441;-64
2023/09/21 04:17:36;;;;;;;0.70;0.70;;;;;;;;;;5113796;28;20503;-64
2023/09/21 04:20:09;;;;;;;1.07;1.07;;;;;;;;;;5113121;28;20943;-64
2023/09/21 04:22:37;;;;;;;0.70;0.70;;;;;;;;;;5113622;28;20427;-64
2023/09/21 04:25:07;;;;;;;0.70;0.70;;;;;;;;;;5126847;27;20467;-64
2023/09/21 04:27:36;;;;;;;0.70;0.70;;;;;;;;;;5134756;27;20488;-64
2023/09/21 04:30:03;;;;;;;0.70;0.70;;;;;;;;;;5134465;27;20535;-64
2023/09/21 04:32:32;;;;;;;0.80;0.80;;;;;;;;;;5134436;27;20529;-64
2023/09/21 04:34:59;;;;;;;0.70;0.70;;;;;;;;;;5134443;27;20444;-64
2023/09/21 04:37:26;;;;;;;0.80;0.80;;;;;;;;;;5134231;27;20449;-64
2023/09/21 04:39:54;;;;;;;0.80;0.80;;;;;;;;;;5134185;27;20886;-63
2023/09/21 04:42:21;;;;;;;0.70;0.70;;;;;;;;;;5134025;27;20783;-63
2023/09/21 04:44:48;;;;;;;0.80;0.80;;;;;;;;;;5134350;27;20485;-63
2023/09/21 04:47:15;;;;;;;0.80;0.80;;;;;;;;;;5134450;27;20476;-63
2023/09/21 04:49:45;;;;;;;0.80;0.80;;;;;;;;;;5133947;27;20471;-63
2023/09/21 04:52:12;;;;;;;0.70;0.70;;;;;;;;;;5134254;27;20439;-63
2023/09/21 04:54:40;;;;;;;0.70;0.70;;;;;;;;;;5134397;27;20449;-63
2023/09/21 04:57:07;;;;;;;0.70;0.70;;;;;;;;;;5134529;27;20749;-63
2023/09/21 04:59:35;;;;;;;0.70;0.70;;;;;;;;;;5133958;27;20441;-63
2023/09/21 05:02:02;;;;;;;0.70;0.70;;;;;;;;;;5133623;27;20437;-63
2023/09/21 05:04:29;;;;;;;0.70;0.70;;;;;;;;;;5133947;27;20527;-63
2023/09/21 05:06:58;;;;;;;0.80;0.80;;;;;;;;;;5134190;27;20549;-63
2023/09/21 05:09:25;;;;;;;0.70;0.70;;;;;;;;;;5133878;27;20445;-63
2023/09/21 05:11:53;;;;;;;0.70;0.70;;;;;;;;;;5134072;27;20439;-63
2023/09/21 05:14:21;;;;;;;0.70;0.70;;;;;;;;;;5134307;27;20535;-64
2023/09/21 05:16:48;;;;;;;0.70;0.70;;;;;;;;;;5134533;27;20432;-63
2023/09/21 05:19:15;;;;;;;0.70;0.70;;;;;;;;;;5134494;28;20437;-63
2023/09/21 05:21:43;;;;;;;0.70;0.70;;;;;;;;;;5133922;28;20436;-63
2023/09/21 05:24:11;;;;;;;0.70;0.70;;;;;;;;;;5133446;28;20468;-63
2023/09/21 05:26:38;;;;;;;0.70;0.70;;;;;;;;;;5134168;28;20430;-63
2023/09/21 05:29:06;;;;;;;0.70;0.70;;;;;;;;;;5133535;28;20471;-63
2023/09/21 05:31:35;;;;;;;0.70;0.70;;;;;;;;;;5133680;28;20869;-63
2023/09/21 05:34:03;;;;;;;0.70;0.70;;;;;;;;;;5133914;28;20448;-63
2023/09/21 05:36:31;;;;;;;0.70;0.70;;;;;;;;;;5133560;28;20451;-63
2023/09/21 05:39:00;;;;;;;0.70;0.70;;;;;;;;;;5133946;28;20450;-63
2023/09/21 05:41:30;;;;;;;0.70;0.70;;;;;;;;;;5133377;28;20449;-63
2023/09/21 05:43:58;;;;;;;0.80;0.80;;;;;;;;;;5133484;28;20417;-63
2023/09/21 05:46:25;;;;;;;0.80;0.80;;;;;;;;;;5133704;28;20443;-63
2023/09/21 05:48:52;;;;;;;0.70;0.70;;;;;;;;;;5134168;28;20562;-63
2023/09/21 05:51:19;;;;;;;0.70;0.70;;;;;;;;;;5133380;28;20532;-63
2023/09/21 05:53:49;;;;;;;0.70;0.70;;;;;;;;;;5133324;28;20449;-63
2023/09/21 05:56:18;;;;;;;0.70;0.70;;;;;;;;;;5133354;28;20995;-63
2023/09/21 05:58:47;;;;;;;0.70;0.70;;;;;;;;;;5133411;28;20451;-64
2023/09/21 06:01:14;;;;;;;0.70;0.70;;;;;;;;;;5133550;28;20791;-63
2023/09/21 06:03:42;;;;;;;0.70;0.70;;;;;;;;;;5134136;28;20486;-63
2023/09/21 06:06:09;;;;;;;0.70;0.70;;;;;;;;;;5133141;28;20444;-63
2023/09/21 06:08:38;;;;;;;0.70;0.70;;;;;;;;;;5134100;28;20485;-63
2023/09/21 06:11:05;;;;;;;0.70;0.70;;;;;;;;;;5133535;28;20430;-63
2023/09/21 06:13:32;;;;;;;0.70;0.70;;;;;;;;;;5133587;28;20533;-63
2023/09/21 06:16:02;;;;;;;0.70;0.70;;;;;;;;;;5133605;28;20430;-63
2023/09/21 06:18:29;;;;;;;0.70;0.70;;;;;;;;;;5137426;27;20430;-63
2023/09/21 06:20:57;;;;;;;0.70;0.70;;;;;;;;;;5137085;27;20451;-63
2023/09/21 06:23:24;;;;;;;0.70;0.70;;;;;;;;;;5137224;27;20796;-63
2023/09/21 06:25:51;;;;;;;0.70;0.70;;;;;;;;;;5137504;27;20821;-63
2023/09/21 06:28:19;;;;;;;0.70;0.70;;;;;;;;;;5137009;27;20485;-63
2023/09/21 06:30:47;;;;;;;0.70;0.70;;;;;;;;;;5136936;27;20734;-63
2023/09/21 06:33:15;;;;;;;0.70;0.70;;;;;;;;;;5137033;27;20481;-63
2023/09/21 06:35:42;;;;;;;0.70;0.70;;;;;;;;;;5137033;27;20445;-63
2023/09/21 06:38:10;;;;;;;0.70;0.70;;;;;;;;;;5136553;27;20441;-63
2023/09/21 06:40:37;;;;;;;0.70;0.70;;;;;;;;;;5136364;27;20433;-63
2023/09/21 06:43:07;;;;;;;0.70;0.70;;;;;;;;;;5136579;27;20927;-63
2023/09/21 06:45:34;;;;;;;0.70;0.70;;;;;;;;;;5136727;27;20437;-63
2023/09/21 06:48:01;;;;;;;0.70;0.70;;;;;;;;;;5136533;27;20642;-63
2023/09/21 06:50:30;;;;;;;0.70;0.70;;;;;;;;;;5136657;27;20429;-63
2023/09/21 06:52:57;;;;;;;0.70;0.70;;;;;;;;;;5136443;27;20531;-63
2023/09/21 06:55:25;;;;;;;0.70;0.70;;;;;;;;;;5136538;27;20432;-63
2023/09/21 06:57:52;;;;;;;0.70;0.70;;;;;;;;;;5136463;27;20442;-63
2023/09/21 07:00:19;;;;;;;0.70;0.70;;;;;;;;;;5136129;27;20448;-63
2023/09/21 07:02:46;;;;;;;0.70;0.70;;;;;;;;;;5136335;27;20429;-63
2023/09/21 07:05:14;;;;;;;0.70;0.70;;;;;;;;;;5136090;27;20434;-63
2023/09/21 07:07:42;;;;;;;0.70;0.70;;;;;;;;;;5136159;27;20532;-63
2023/09/21 07:10:11;;;;;;;0.70;0.70;;;;;;;;;;5135944;27;20445;-63
2023/09/21 07:12:39;;;;;;;0.70;0.70;;;;;;;;;;5135804;27;20542;-63
2023/09/21 07:15:07;;;;;;;0.70;0.70;;;;;;;;;;5136165;27;20446;-63
2023/09/21 07:17:36;;;;;;;0.70;0.70;;;;;;;;;;5136200;27;20433;-63
2023/09/21 07:20:04;;;;;;;0.70;0.70;;;;;;;;;;5136010;27;20441;-63
2023/09/21 07:22:31;;;;;;;0.70;0.70;;;;;;;;;;5135859;27;20426;-63
2023/09/21 07:25:02;;;;;;;0.70;0.70;;;;;;;;;;5135243;27;20564;-64
2023/09/21 07:27:29;;;;;;;0.73;0.73;;;;;;;;;;5135860;27;20824;-63
2023/09/21 07:29:57;;;;;;;0.70;0.70;;;;;;;;;;5134707;27;20452;-63
2023/09/21 07:32:25;;;;;;;0.70;0.70;;;;;;;;;;5135746;27;20434;-63
2023/09/21 07:34:52;;;;;;;0.70;0.70;;;;;;;;;;5135847;27;20930;-63
2023/09/21 07:37:19;;;;;;;0.70;0.70;;;;;;;;;;5135685;27;20490;-63
2023/09/21 07:39:47;;;;;;;0.70;0.70;;;;;;;;;;5135717;27;20442;-63
2023/09/21 07:42:15;;;;;;;0.70;0.70;;;;;;;;;;5135296;27;20915;-63
2023/09/21 07:44:44;;;;;;;0.70;0.70;;;;;;;;;;5135540;27;20490;-64
2023/09/21 07:47:12;;;;;;;0.70;0.70;;;;;;;;;;5135040;27;20485;-64
2023/09/21 07:49:40;;;;;;;0.70;0.70;;;;;;;;;;5135736;27;20481;-63
2023/09/21 07:52:08;;;;;;;0.70;0.70;;;;;;;;;;5135490;27;20436;-63
2023/09/21 07:54:35;;;;;;;0.70;0.70;;;;;;;;;;5135964;27;20442;-63
2023/09/21 07:57:04;;;;;;;0.70;0.70;;;;;;;;;;5135120;27;20537;-63
2023/09/21 07:59:33;;;;;;;0.70;0.70;;;;;;;;;;5135044;27;20442;-63
2023/09/21 08:02:00;;;;;;;0.70;0.70;;;;;;;;;;5135104;27;20529;-63
2023/09/21 08:04:29;;;;;;;0.70;0.70;;;;;;;;;;5135269;27;20445;-63
2023/09/21 08:06:59;;;;;;;0.70;0.70;;;;;;;;;;5134595;27;20446;-63
2023/09/21 08:09:26;;;;;;;0.70;0.70;;;;;;;;;;5134791;27;20465;-63
2023/09/21 08:11:53;;;;;;;0.70;0.70;;;;;;;;;;5134908;27;20470;-63
2023/09/21 08:14:21;;;;;;;0.70;0.70;;;;;;;;;;5134711;27;21030;-63
2023/09/21 08:16:49;;;;;;;0.70;0.70;;;;;;;;;;5134769;27;20782;-63
2023/09/21 08:19:16;;;;;;;0.70;0.70;;;;;;;;;;5134975;27;20528;-63
2023/09/21 08:21:44;;;;;;;0.70;0.70;;;;;;;;;;5134658;27;20493;-63
2023/09/21 08:24:11;;;;;;;0.70;0.70;;;;;;;;;;5135136;27;20472;-63
2023/09/21 08:26:40;;;;;;;0.70;0.70;;;;;;;;;;5135008;27;20525;-63
2023/09/21 08:29:07;;;;;;;0.80;0.80;;;;;;;;;;5134441;27;20572;-63
2023/09/21 08:31:35;;;;;;;0.70;0.70;;;;;;;;;;5134634;27;20520;-63
2023/09/21 08:34:03;;;;;;;0.70;0.70;;;;;;;;;;5134179;27;20434;-63
2023/09/21 08:36:30;;;;;;;0.70;0.70;;;;;;;;;;5134302;27;20530;-63
2023/09/21 08:39:02;;;;;;;0.70;0.70;;;;;;;;;;5134608;27;20442;-63
2023/09/21 08:41:29;;;;;;;0.70;0.70;;;;;;;;;;5134249;27;20426;-64
2023/09/21 08:43:58;;;;;;;0.70;0.70;;;;;;;;;;5134508;27;20521;-63
2023/09/21 08:46:25;;;;;;;0.70;0.70;;;;;;;;;;5134734;27;20458;-63
2023/09/21 08:48:55;;;;;;;0.70;0.70;;;;;;;;;;5134303;27;20477;-63
2023/09/21 08:51:25;;;;;;;0.70;0.70;;;;;;;;;;5134251;27;21003;-63
2023/09/21 08:53:52;;;;;;;0.70;0.70;;;;;;;;;;5134261;27;20441;-63
2023/09/21 08:56:21;;;;;;;0.70;0.70;;;;;;;;;;5134276;27;20808;-63
2023/09/21 08:58:50;;;;;;;0.80;0.80;;;;;;;;;;5133799;27;20442;-64
2023/09/21 09:01:18;;;;;;;0.70;0.70;;;;;;;;;;5134409;27;20441;-64
2023/09/21 09:03:47;;;;;;;0.70;0.70;;;;;;;;;;5133974;27;20525;-63
2023/09/21 09:06:14;;;;;;;0.70;0.70;;;;;;;;;;5134002;27;20444;-63
2023/09/21 09:08:46;;;;;;;0.70;0.70;;;;;;;;;;5133591;27;20526;-64
2023/09/21 09:11:28;;;;;;;0.70;0.70;;;;;;;;;;5134335;27;20783;-63
2023/09/21 09:13:55;;;;;;;0.70;0.70;;;;;;;;;;5133644;27;20529;-63
2023/09/21 09:16:28;;;;;;;0.70;0.70;;;;;;;;;;5134253;27;20438;-63
2023/09/21 09:18:57;;;;;;;0.70;0.70;;;;;;;;;;5134589;27;20538;-64
2023/09/21 09:21:24;;;;;;;0.70;0.70;;;;;;;;;;5134445;28;20432;-63
2023/09/21 09:23:53;;;;;;;0.70;0.70;;;;;;;;;;5133802;28;20472;-63
2023/09/21 09:26:20;;;;;;;0.70;0.70;;;;;;;;;;5134291;28;20499;-63
2023/09/21 09:28:48;;;;;;;0.70;0.70;;;;;;;;;;5134015;28;20487;-64
2023/09/21 09:31:17;;;;;;;0.70;0.70;;;;;;;;;;5133778;28;20965;-64
2023/09/21 09:33:47;;;;;;;0.70;0.70;;;;;;;;;;5133956;28;20496;-63
2023/09/21 09:36:14;;;;;;;0.70;0.70;;;;;;;;;;5134221;28;20841;-63
2023/09/21 09:38:42;;;;;;;0.70;0.70;;;;;;;;;;5133768;28;20423;-64
2023/09/21 09:41:14;;;;;;;0.70;0.70;;;;;;;;;;5133997;28;20442;-63
2023/09/21 09:43:43;;;;;;;0.70;0.70;;;;;;;;;;5134371;28;20431;-63
2023/09/21 09:46:12;;;;;;;0.70;0.70;;;;;;;;;;5133611;28;20921;-63
2023/09/21 09:48:40;;;;;;;0.70;0.70;;;;;;;;;;5133944;28;20480;-63
2023/09/21 09:51:11;;;;;;;0.70;0.60;;;;;;;;;;5134013;27;20444;-63
2023/09/21 09:53:40;;;;;;;0.70;0.70;;;;;;;;;;5137155;27;20456;-64
2023/09/21 09:56:09;;;;;;;0.70;0.70;;;;;;;;;;5137941;27;20439;-63
2023/09/21 09:58:41;;;;;;;0.70;0.70;;;;;;;;;;5137433;27;20540;-63
2023/09/21 10:01:12;;;;;;;0.70;0.70;;;;;;;;;;5137923;27;20433;-63
2023/09/21 10:03:39;;;;;;;0.70;0.70;;;;;;;;;;5137724;27;20519;-63
2023/09/21 10:06:08;;;;;;;0.70;0.70;;;;;;;;;;5137773;27;20446;-63
2023/09/21 10:08:38;;;;;;;0.70;0.70;;;;;;;;;;5137219;27;20455;-63
2023/09/21 10:11:06;;;;;;;0.70;0.70;;;;;;;;;;5137576;27;20466;-63
2023/09/21 10:13:34;;;;;;;0.70;0.70;;;;;;;;;;5138119;27;20442;-63
2023/09/21 10:16:04;;;;;;;0.70;0.70;;;;;;;;;;5137445;27;20433;-64
2023/09/21 10:18:33;;;;;;;0.70;0.70;;;;;;;;;;5137142;27;20436;-64
2023/09/21 10:21:00;;;;;;;0.70;0.70;;;;;;;;;;5136838;27;20441;-63
2023/09/21 10:23:28;;;;;;;0.70;0.70;;;;;;;;;;5137145;27;20451;-63
2023/09/21 10:25:55;;;;;;;0.70;0.70;;;;;;;;;;5136848;27;20437;-64
2023/09/21 10:28:39;;;;;;;0.70;0.70;;;;;;;;;;5137249;27;20497;-63
2023/09/21 10:31:23;;;;;;;0.70;0.70;;;;;;;;;;5134664;27;20809;-63
2023/09/21 10:34:08;;;;;;;0.70;0.70;;;;;;;;;;5137707;27;20443;-63
2023/09/21 10:36:38;;;;;;;0.70;0.70;;;;;;;;;;5136959;27;20435;-63
2023/09/21 10:39:24;;;;;;;0.70;0.70;;;;;;;;;;5136478;27;20941;-64
2023/09/21 10:41:52;;;;;;;0.70;0.70;;;;;;;;;;5137372;27;20425;-64
2023/09/21 10:44:38;;;;;;;0.70;0.70;;;;;;;;;;5137289;27;20442;-63
2023/09/21 10:47:07;;;;;;;0.70;0.70;;;;;;;;;;5136563;27;20444;-63
2023/09/21 10:49:35;;;;;;;0.70;0.70;;;;;;;;;;5136223;27;20583;-64
2023/09/21 10:52:03;;;;;;;0.70;0.70;;;;;;;;;;5136641;27;20438;-63
2023/09/21 10:54:30;;;;;;;0.70;0.60;;;;;;;;;;5136754;27;20450;-63
2023/09/21 10:56:58;;;;;;;0.80;0.80;;;;;;;;;;5136591;27;20816;-63
2023/09/21 10:59:29;;;;;;;0.70;0.70;;;;;;;;;;5136461;27;20445;-63
2023/09/21 11:01:56;;;;;;;0.70;0.70;;;;;;;;;;5136748;27;20507;-63
2023/09/21 11:04:25;;;;;;;0.70;0.70;;;;;;;;;;5135700;27;20437;-63
2023/09/21 11:06:52;;;;;;;0.70;0.70;;;;;;;;;;5136392;27;20786;-63
2023/09/21 11:09:20;;;;;;;0.70;0.60;;;;;;;;;;5135699;27;20582;-63
2023/09/21 11:11:47;;;;;;;0.70;0.70;;;;;;;;;;5136662;27;20440;-63
2023/09/21 11:14:16;;;;;;;0.70;0.70;;;;;;;;;;5136109;27;20534;-64
2023/09/21 11:16:44;;;;;;;0.70;0.70;;;;;;;;;;5136265;27;20468;-63
2023/09/21 11:19:11;;;;;;;0.80;0.80;;;;;;;;;;5135995;27;20439;-63
2023/09/21 11:21:40;;;;;;;0.70;0.60;;;;;;;;;;5136035;27;20445;-63
2023/09/21 11:24:08;;;;;;;0.70;0.70;;;;;;;;;;5135515;27;20468;-63
2023/09/21 11:26:35;;;;;;;0.70;0.60;;;;;;;;;;5135654;27;20850;-63
2023/09/21 11:29:04;;;;;;;0.70;0.70;;;;;;;;;;5135503;27;20779;-63
2023/09/21 11:31:32;;;;;;;0.70;0.70;;;;;;;;;;5135547;27;20782;-63
2023/09/21 11:34:05;;;;;;;0.70;0.60;;;;;;;;;;5135509;27;20452;-63
2023/09/21 11:36:32;;;;;;;0.80;0.80;;;;;;;;;;5135332;27;20516;-64
2023/09/21 11:39:01;;;;;;;0.70;0.70;;;;;;;;;;5135311;27;20484;-68
2023/09/21 11:41:28;;;;;;;0.70;0.70;;;;;;;;;;5135654;27;20490;-64
2023/09/21 11:43:56;;;;;;;0.70;0.70;;;;;;;;;;5136107;27;20535;-64
2023/09/21 11:46:24;;;;;;;0.70;0.70;;;;;;;;;;5135300;27;20478;-63
2023/09/21 11:48:53;;;;;;;0.80;0.80;;;;;;;;;;5135097;27;21005;-63
2023/09/21 11:51:26;;;;;;;0.70;0.70;;;;;;;;;;5129917;27;20448;-63
2023/09/21 11:53:53;;;;;;;0.70;0.70;;;;;;;;;;5113647;28;20449;-64
2023/09/21 11:56:21;;;;;;;0.70;0.70;;;;;;;;;;5113532;28;20448;-64
2023/09/21 11:58:49;;;;;;;0.70;0.70;;;;;;;;;;5113783;28;20441;-64
2023/09/21 12:01:19;;;;;;;0.70;0.70;;;;;;;;;;5113543;28;20868;-64
2023/09/21 12:03:48;;;;;;;0.70;0.70;;;;;;;;;;5113887;28;20427;-63
2023/09/21 12:06:15;;;;;;;0.80;0.80;;;;;;;;;;5113613;28;20481;-63
2023/09/21 12:08:43;;;;;;;0.70;0.60;;;;;;;;;;5113765;28;20512;-63
2023/09/21 12:11:11;;;;;;;0.70;0.70;;;;;;;;;;5113559;28;20482;-63
2023/09/21 12:13:40;;;;;;;0.70;0.70;;;;;;;;;;5113792;28;20515;-63
2023/09/21 12:16:07;;;;;;;0.80;0.80;;;;;;;;;;5113098;28;20532;-64
2023/09/21 12:18:34;;;;;;;0.80;0.80;;;;;;;;;;5113759;28;20526;-63
2023/09/21 12:21:03;;;;;;;0.70;0.60;;;;;;;;;;5113173;28;20535;-64
2023/09/21 12:23:31;;;;;;;0.70;0.70;;;;;;;;;;5113778;28;20465;-64
2023/09/21 12:25:58;;;;;;;0.70;0.70;;;;;;;;;;5114377;28;20450;-64
2023/09/21 12:28:27;;;;;;;0.70;0.70;;;;;;;;;;5114194;28;20442;-63
2023/09/21 12:30:55;;;;;;;0.70;0.70;;;;;;;;;;5114002;28;20554;-64
2023/09/21 12:33:23;;;;;;;0.70;0.70;;;;;;;;;;5113318;28;20529;-64
2023/09/21 12:35:50;;;;;;;0.77;0.77;;;;;;;;;;5113033;28;20438;-63
2023/09/21 12:38:17;;;;;;;0.70;0.70;;;;;;;;;;5113986;28;20854;-64
2023/09/21 12:40:44;;;;;;;0.70;0.70;;;;;;;;;;5113087;28;20452;-63
2023/09/21 12:43:11;;;;;;;0.70;0.70;;;;;;;;;;5113427;28;20538;-64
2023/09/21 12:45:39;;;;;;;0.70;0.70;;;;;;;;;;5113670;28;20477;-64
2023/09/21 12:48:08;;;;;;;0.70;0.70;;;;;;;;;;5114163;28;20467;-64
2023/09/21 12:50:35;;;;;;;0.70;0.70;;;;;;;;;;5113478;28;20469;-64
2023/09/21 12:53:05;;;;;;;0.80;0.80;;;;;;;;;;5113205;28;20540;-64
2023/09/21 12:55:34;;;;;;;0.70;0.70;;;;;;;;;;5113498;28;20435;-64
2023/09/21 12:58:02;;;;;;;0.70;0.70;;;;;;;;;;5113508;28;20447;-64
2023/09/21 13:00:32;;;;;;;0.70;0.70;;;;;;;;;;5113601;28;20469;-64
2023/09/21 13:02:59;;;;;;;0.70;0.67;;;;;;;;;;5131660;27;20922;-64
2023/09/21 13:05:28;;;;;;;0.70;0.70;;;;;;;;;;5133565;27;20987;-64
2023/09/21 13:07:56;;;;;;;0.70;0.70;;;;;;;;;;5134170;27;20444;-64
2023/09/21 13:10:23;;;;;;;0.73;0.73;;;;;;;;;;5133974;27;20472;-63
2023/09/21 13:12:51;;;;;;;0.70;0.70;;;;;;;;;;5133897;27;20794;-64
2023/09/21 13:15:18;;;;;;;0.70;0.70;;;;;;;;;;5133432;27;20950;-64
2023/09/21 13:17:45;;;;;;;0.70;0.70;;;;;;;;;;5133651;27;20475;-64
2023/09/21 13:20:17;;;;;;;1.10;1.00;;;;;;;;;;5133687;27;20800;-64
2023/09/21 13:22:45;;;;;;;0.70;0.70;;;;;;;;;;5133291;28;20434;-64
2023/09/21 13:25:13;;;;;;;0.73;0.73;;;;;;;;;;5133810;28;20557;-64
2023/09/21 13:27:40;;;;;;;0.70;0.63;;;;;;;;;;5137526;27;20440;-64
2023/09/21 13:30:09;;;;;;;0.70;0.70;;;;;;;;;;5137873;27;20574;-63
2023/09/21 13:32:36;;;;;;;0.70;0.70;;;;;;;;;;5137856;27;20498;-64
2023/09/21 13:35:04;;;;;;;0.77;0.77;;;;;;;;;;5137707;27;20443;-64
2023/09/21 13:37:32;;;;;;;0.70;0.70;;;;;;;;;;5137458;27;20456;-64
2023/09/21 13:40:01;;;;;;;0.70;0.70;;;;;;;;;;5137888;27;20437;-64
2023/09/21 13:42:28;;;;;;;0.70;0.70;;;;;;;;;;5137510;27;20788;-64
2023/09/21 13:44:55;;;;;;;0.70;0.70;;;;;;;;;;5138075;27;20451;-64
2023/09/21 13:47:22;;;;;;;0.70;0.70;;;;;;;;;;5137387;27;20655;-64
2023/09/21 13:49:50;;;;;;;0.70;0.70;;;;;;;;;;5137856;27;20801;-64
2023/09/21 13:52:17;;;;;;;0.70;0.70;;;;;;;;;;5137430;27;20437;-64
2023/09/21 13:54:44;;;;;;;0.70;0.60;;;;;;;;;;5138060;27;20546;-63
2023/09/21 13:57:13;;;;;;;0.70;0.70;;;;;;;;;;5136967;27;20536;-64
2023/09/21 13:59:40;;;;;;;0.70;0.70;;;;;;;;;;5137274;27;20533;-64
2023/09/21 14:02:09;;;;;;;0.70;0.70;;;;;;;;;;5137240;27;20437;-64
2023/09/21 14:04:36;;;;;;;0.70;0.70;;;;;;;;;;5137349;27;20436;-64
2023/09/21 14:07:03;;;;;;;0.70;0.70;;;;;;;;;;5137318;27;20867;-63
2023/09/21 14:09:31;;;;;;;0.70;0.70;;;;;;;;;;5137106;27;20955;-63
2023/09/21 14:11:58;;;;;;;0.70;0.70;;;;;;;;;;5137641;27;20509;-62
2023/09/21 14:14:27;;;;;;;0.70;0.70;;;;;;;;;;5136593;27;20799;-64
2023/09/21 14:16:54;;;;;;;0.70;0.70;;;;;;;;;;5136861;27;20445;-63
2023/09/21 14:19:22;;;;;;;0.70;0.70;;;;;;;;;;5136864;27;20440;-63
2023/09/21 14:21:51;;;;;;;0.70;0.70;;;;;;;;;;5136883;27;20837;-63
2023/09/21 14:24:20;;;;;;;0.70;0.70;;;;;;;;;;5136521;27;20529;-63
2023/09/21 14:26:47;;;;;;;0.70;0.70;;;;;;;;;;5136860;27;20451;-63
2023/09/21 14:29:15;;;;;;;0.70;0.70;;;;;;;;;;5137064;27;20528;-64
2023/09/21 14:31:43;;;;;;;0.70;0.70;;;;;;;;;;5136572;27;20480;-63
2023/09/21 14:34:11;;;;;;;0.70;0.70;;;;;;;;;;5136570;27;20932;-63
2023/09/21 14:36:38;;;;;;;0.70;0.70;;;;;;;;;;5136412;27;20526;-63
2023/09/21 14:39:05;;;;;;;0.70;0.60;;;;;;;;;;5136136;27;20519;-63
2023/09/21 14:41:33;;;;;;;0.70;0.60;;;;;;;;;;5136633;27;20564;-63
2023/09/21 14:44:00;;;;;;;0.70;0.70;;;;;;;;;;5136304;27;20433;-64
2023/09/21 14:46:27;;;;;;;0.70;0.70;;;;;;;;;;5136028;27;20874;-63
2023/09/21 14:48:56;;;;;;;0.70;0.70;;;;;;;;;;5136354;27;20484;-63
2023/09/21 14:51:23;;;;;;;0.70;0.70;;;;;;;;;;5136550;27;20494;-63